createdAt,value
2019-02-22T00:02:48.100Z,31.00
2019-02-22T00:05:38.614Z,34.60
2019-02-22T00:08:28.779Z,34.07
2019-02-22T00:11:18.833Z,39.17
2019-02-22T00:14:08.266Z,33.77
2019-02-22T00:16:58.248Z,38.37
2019-02-22T00:19:48.720Z,34.40
2019-02-22T00:22:38.573Z,33.23
2019-02-22T00:25:29.067Z,41.80
2019-02-22T00:28:18.975Z,35.37
2019-02-22T00:31:09.208Z,35.37
2019-02-22T00:33:58.638Z,38.27
2019-02-22T00:36:48.489Z,35.80
2019-02-22T00:39:38.215Z,34.27
2019-02-22T00:42:27.943Z,31.73
2019-02-22T00:45:17.730Z,33.70
2019-02-22T00:48:07.774Z,31.33
2019-02-22T00:50:57.646Z,29.33
2019-02-22T00:53:47.599Z,27.20
2019-02-22T00:56:37.394Z,25.43
2019-02-22T00:59:27.242Z,24.27
2019-02-22T01:02:17.195Z,23.13
2019-02-22T01:05:07.221Z,22.63
2019-02-22T01:07:57.099Z,27.73
2019-02-22T01:10:47.119Z,24.67
2019-02-22T01:13:37.072Z,27.73
2019-02-22T01:16:27.239Z,24.70
2019-02-22T01:19:16.608Z,25.97
2019-02-22T01:22:06.375Z,28.37
2019-02-22T01:24:56.180Z,28.60
2019-02-22T01:27:47.205Z,24.40
2019-02-22T01:30:37.081Z,27.57
2019-02-22T01:33:26.984Z,22.37
2019-02-22T01:36:16.585Z,22.53
2019-02-22T01:39:07.338Z,24.00
2019-02-22T01:41:57.179Z,23.73
2019-02-22T01:44:46.938Z,25.50
2019-02-22T01:47:36.940Z,26.50
2019-02-22T01:50:27.169Z,23.53
2019-02-22T01:53:16.761Z,23.50
2019-02-22T01:56:06.801Z,25.33
2019-02-22T01:58:56.633Z,25.37
2019-02-22T02:01:46.815Z,25.37
2019-02-22T02:04:37.664Z,28.93
2019-02-22T02:07:27.514Z,23.03
2019-02-22T02:10:17.813Z,28.40
2019-02-22T02:13:07.555Z,26.90
2019-02-22T02:15:57.680Z,22.50
2019-02-22T02:18:47.074Z,24.23
2019-02-22T02:21:36.696Z,25.93
2019-02-22T02:24:26.655Z,25.70
2019-02-22T02:27:16.532Z,24.70
2019-02-22T02:30:07.412Z,21.93
2019-02-22T02:32:58.239Z,23.60
2019-02-22T02:35:48.205Z,20.60
2019-02-22T02:38:37.616Z,22.20
2019-02-22T02:41:27.371Z,25.73
2019-02-22T02:44:17.223Z,24.33
2019-02-22T02:47:07.439Z,23.60
2019-02-22T02:49:57.431Z,26.73
2019-02-22T02:52:47.047Z,25.90
2019-02-22T02:55:37.254Z,22.87
2019-02-22T02:58:27.040Z,21.10
2019-02-22T03:01:17.121Z,21.90
2019-02-22T03:04:07.061Z,24.73
2019-02-22T03:07:01.985Z,23.83
2019-02-22T03:09:51.482Z,25.90
2019-02-22T03:12:41.766Z,23.77
2019-02-22T03:15:31.822Z,22.03
2019-02-22T03:18:21.731Z,21.37
2019-02-22T03:21:11.555Z,23.87
2019-02-22T03:24:01.232Z,23.77
2019-02-22T03:26:51.008Z,23.80
2019-02-22T03:29:40.764Z,23.90
2019-02-22T03:32:30.810Z,22.30
2019-02-22T03:35:20.622Z,25.63
2019-02-22T03:38:10.298Z,24.97
2019-02-22T03:40:59.933Z,26.07
2019-02-22T03:43:50.612Z,24.93
2019-02-22T03:46:40.312Z,23.37
2019-02-22T03:49:31.091Z,22.77
2019-02-22T03:52:25.413Z,24.23
2019-02-22T03:55:15.153Z,22.17
2019-02-22T03:58:05.398Z,23.13
2019-02-22T04:00:55.245Z,22.90
2019-02-22T04:03:45.368Z,24.37
2019-02-22T04:06:35.132Z,23.40
2019-02-22T04:09:25.239Z,22.40
2019-02-22T04:12:15.128Z,24.00
2019-02-22T04:15:05.789Z,21.50
2019-02-22T04:17:55.813Z,22.70
2019-02-22T04:20:45.670Z,26.27
2019-02-22T04:23:35.343Z,23.67
2019-02-22T04:26:25.190Z,23.50
2019-02-22T04:29:15.238Z,22.10
2019-02-22T04:32:05.060Z,24.57
2019-02-22T04:34:54.873Z,23.97
2019-02-22T04:37:44.774Z,22.33
2019-02-22T04:40:34.484Z,24.50
2019-02-22T04:43:23.918Z,20.80
2019-02-22T04:46:14.036Z,18.60
2019-02-22T04:49:03.906Z,20.27
2019-02-22T04:51:53.880Z,20.07
2019-02-22T04:54:44.181Z,17.77
2019-02-22T04:57:34.327Z,18.43
2019-02-22T05:00:25.170Z,18.60
2019-02-22T05:03:15.366Z,17.60
2019-02-22T05:06:05.346Z,19.80
2019-02-22T05:08:54.824Z,19.77
2019-02-22T05:11:44.564Z,20.47
2019-02-22T05:14:34.307Z,19.33
2019-02-22T05:17:23.801Z,18.70
2019-02-22T05:20:14.080Z,16.60
2019-02-22T05:23:07.441Z,18.40
2019-02-22T05:25:56.430Z,19.37
2019-02-22T05:28:46.598Z,19.67
2019-02-22T05:31:36.411Z,17.83
2019-02-22T05:34:26.447Z,16.47
2019-02-22T05:37:16.226Z,14.70
2019-02-22T05:40:06.274Z,15.03
2019-02-22T05:42:56.092Z,15.00
2019-02-22T05:45:45.917Z,13.50
2019-02-22T05:48:38.778Z,15.97
2019-02-22T05:51:27.967Z,16.53
2019-02-22T05:54:17.799Z,16.40
2019-02-22T05:57:07.230Z,13.93
2019-02-22T05:59:56.716Z,14.67
2019-02-22T06:02:47.151Z,13.73
2019-02-22T06:05:37.020Z,13.50
2019-02-22T06:08:26.993Z,15.17
2019-02-22T06:11:16.696Z,14.53
2019-02-22T06:14:06.578Z,15.60
2019-02-22T06:16:56.334Z,12.67
2019-02-22T06:19:46.115Z,13.27
2019-02-22T06:22:36.129Z,13.90
2019-02-22T06:25:25.982Z,14.67
2019-02-22T06:28:16.127Z,15.83
2019-02-22T06:31:06.214Z,14.03
2019-02-22T06:33:55.919Z,14.63
2019-02-22T06:36:46.060Z,14.03
2019-02-22T06:39:35.987Z,13.67
2019-02-22T06:42:25.826Z,13.43
2019-02-22T06:45:15.921Z,15.77
2019-02-22T06:48:05.647Z,15.40
2019-02-22T06:50:55.704Z,16.00
2019-02-22T06:53:45.556Z,14.23
2019-02-22T06:56:35.317Z,14.03
2019-02-22T06:59:25.350Z,15.27
2019-02-22T07:02:15.520Z,14.97
2019-02-22T07:05:05.819Z,14.90
2019-02-22T07:07:56.930Z,12.80
2019-02-22T07:11:04.689Z,12.30
2019-02-22T07:13:54.461Z,11.93
2019-02-22T07:16:44.898Z,12.53
2019-02-22T07:19:34.466Z,9.87
2019-02-22T07:22:24.602Z,11.17
2019-02-22T07:25:14.411Z,12.23
2019-02-22T07:28:04.206Z,11.00
2019-02-22T07:30:53.968Z,10.83
2019-02-22T07:33:44.095Z,12.47
2019-02-22T07:36:33.689Z,10.07
2019-02-22T07:39:27.864Z,11.90
2019-02-22T07:42:15.041Z,10.10
2019-02-22T07:45:05.698Z,10.83
2019-02-22T07:47:55.820Z,11.30
2019-02-22T07:50:56.541Z,10.97
2019-02-22T07:53:37.473Z,9.57
2019-02-22T07:56:27.124Z,9.40
2019-02-22T07:59:16.851Z,9.80
2019-02-22T08:02:06.963Z,8.40
2019-02-22T08:04:55.967Z,7.00
2019-02-22T08:07:46.041Z,8.40
2019-02-22T08:10:35.816Z,7.20
2019-02-22T08:13:26.136Z,8.80
2019-02-22T08:16:16.584Z,7.47
2019-02-22T08:19:06.613Z,8.10
2019-02-22T08:21:56.758Z,6.67
2019-02-22T08:24:46.152Z,6.60
2019-02-22T08:27:39.874Z,7.53
2019-02-22T08:30:29.355Z,8.07
2019-02-22T08:33:19.092Z,7.63
2019-02-22T08:36:08.967Z,7.30
2019-02-22T08:38:59.107Z,7.40
2019-02-22T08:41:49.233Z,7.00
2019-02-22T08:44:39.618Z,8.13
2019-02-22T08:47:29.913Z,7.17
2019-02-22T08:50:19.782Z,7.77
2019-02-22T08:53:09.837Z,7.20
2019-02-22T08:55:59.632Z,6.83
2019-02-22T08:58:49.426Z,8.10
2019-02-22T09:01:40.322Z,10.20
2019-02-22T09:04:30.018Z,8.97
2019-02-22T09:07:20.096Z,10.57
2019-02-22T09:10:10.842Z,10.43
2019-02-22T09:13:01.181Z,11.67
2019-02-22T09:15:50.978Z,12.87
2019-02-22T09:18:40.487Z,11.90
2019-02-22T09:21:30.003Z,11.43
2019-02-22T09:24:19.972Z,11.47
2019-02-22T09:27:09.812Z,12.40
2019-02-22T09:29:59.706Z,11.23
2019-02-22T09:32:49.467Z,10.30
2019-02-22T09:35:39.870Z,10.40
2019-02-22T09:38:29.919Z,10.23
2019-02-22T09:41:19.720Z,9.40
2019-02-22T09:44:09.174Z,10.20
2019-02-22T09:46:58.874Z,9.00
2019-02-22T09:49:49.686Z,9.37
2019-02-22T09:52:39.827Z,9.00
2019-02-22T09:55:29.937Z,9.80
2019-02-22T09:58:19.884Z,8.57
2019-02-22T10:01:10.209Z,9.07
2019-02-22T10:04:00.184Z,9.27
2019-02-22T10:06:50.055Z,8.67
2019-02-22T10:09:39.917Z,8.17
2019-02-22T10:12:29.930Z,7.30
2019-02-22T10:15:20.019Z,6.70
2019-02-22T10:18:09.783Z,6.90
2019-02-22T10:20:59.593Z,6.80
2019-02-22T10:23:49.853Z,7.20
2019-02-22T10:26:39.732Z,7.20
2019-02-22T10:29:29.386Z,6.80
2019-02-22T10:32:20.152Z,8.57
2019-02-22T10:35:09.770Z,5.93
2019-02-22T10:37:59.317Z,6.63
2019-02-22T10:40:49.255Z,6.77
2019-02-22T10:43:39.329Z,6.57
2019-02-22T10:46:29.164Z,6.80
2019-02-22T10:49:19.368Z,6.43
2019-02-22T10:52:08.974Z,6.50
2019-02-22T10:54:58.528Z,6.17
2019-02-22T10:57:48.338Z,6.00
2019-02-22T11:00:38.474Z,4.90
2019-02-22T11:03:27.948Z,6.40
2019-02-22T11:06:17.904Z,5.30
2019-02-22T11:09:08.913Z,4.90
2019-02-22T11:11:59.240Z,4.77
2019-02-22T11:14:49.251Z,5.17
2019-02-22T11:17:39.113Z,4.87
2019-02-22T11:20:28.495Z,4.53
2019-02-22T11:23:18.040Z,4.80
2019-02-22T11:26:08.188Z,5.10
2019-02-22T11:28:57.746Z,4.90
2019-02-22T11:31:47.639Z,5.33
2019-02-22T11:34:36.954Z,5.70
2019-02-22T11:37:26.330Z,5.43
2019-02-22T11:40:16.128Z,4.87
2019-02-22T11:43:06.108Z,5.07
2019-02-22T11:45:55.619Z,5.83
2019-02-22T11:48:45.392Z,5.33
2019-02-22T11:51:36.235Z,5.40
2019-02-22T11:54:26.136Z,5.50
2019-02-22T11:57:19.503Z,5.40
2019-02-22T12:00:12.965Z,6.27
2019-02-22T12:03:15.958Z,6.10
2019-02-22T12:05:54.412Z,6.60
2019-02-22T12:08:43.973Z,6.20
2019-02-22T12:11:33.680Z,6.43
2019-02-22T12:14:23.484Z,6.70
2019-02-22T12:17:13.052Z,7.47
2019-02-22T12:20:03.421Z,6.87
2019-02-22T12:22:52.842Z,6.20
2019-02-22T12:25:44.584Z,6.67
2019-02-22T12:28:34.610Z,6.97
2019-02-22T12:31:24.629Z,6.73
2019-02-22T12:34:14.302Z,6.90
2019-02-22T12:37:04.664Z,6.93
2019-02-22T12:39:54.722Z,6.73
2019-02-22T12:42:44.459Z,7.43
2019-02-22T12:45:34.844Z,5.90
2019-02-22T12:48:24.853Z,7.70
2019-02-22T12:51:15.078Z,7.40
2019-02-22T12:54:04.923Z,7.70
2019-02-22T12:56:57.272Z,6.87
2019-02-22T12:59:46.176Z,8.30
2019-02-22T13:02:35.974Z,7.27
2019-02-22T13:05:26.462Z,7.50
2019-02-22T13:08:16.344Z,7.63
2019-02-22T13:11:06.100Z,8.70
2019-02-22T13:13:55.608Z,7.73
2019-02-22T13:16:46.898Z,7.97
2019-02-22T13:19:36.909Z,7.47
2019-02-22T13:22:27.103Z,8.00
2019-02-22T13:25:17.203Z,7.63
2019-02-22T13:28:07.131Z,8.37
2019-02-22T13:30:56.847Z,10.03
2019-02-22T13:33:48.211Z,9.40
2019-02-22T13:36:38.041Z,9.20
2019-02-22T13:39:28.174Z,8.33
2019-02-22T13:42:18.176Z,7.67
2019-02-22T13:45:09.319Z,7.53
2019-02-22T13:47:59.417Z,7.33
2019-02-22T13:50:49.476Z,8.53
2019-02-22T13:53:39.168Z,7.97
2019-02-22T13:56:30.064Z,9.33
2019-02-22T13:59:19.951Z,7.50
2019-02-22T14:02:09.876Z,7.10
2019-02-22T14:04:59.603Z,7.83
2019-02-22T14:07:56.488Z,7.77
2019-02-22T14:10:46.376Z,8.20
2019-02-22T14:13:37.361Z,7.80
2019-02-22T14:16:27.637Z,9.23
2019-02-22T14:19:17.899Z,8.97
2019-02-22T14:22:08.107Z,8.70
2019-02-22T14:24:58.068Z,8.03
2019-02-22T14:27:48.205Z,9.03
2019-02-22T14:30:37.905Z,9.37
2019-02-22T14:33:27.355Z,8.63
2019-02-22T14:36:17.431Z,8.50
2019-02-22T14:39:09.351Z,9.33
2019-02-22T14:41:59.892Z,8.13
2019-02-22T14:44:49.613Z,9.20
2019-02-22T14:47:39.574Z,8.13
2019-02-22T14:50:29.688Z,8.20
2019-02-22T14:53:20.051Z,7.57
2019-02-22T14:56:09.899Z,8.20
2019-02-22T14:59:00.759Z,7.90
2019-02-22T15:01:51.374Z,7.30
2019-02-22T15:04:42.075Z,7.33
2019-02-22T15:07:32.066Z,7.80
2019-02-22T15:10:21.956Z,7.47
2019-02-22T15:13:12.715Z,7.70
2019-02-22T15:16:28.062Z,6.83
2019-02-22T15:19:18.436Z,6.53
2019-02-22T15:22:09.032Z,7.03
2019-02-22T15:24:58.329Z,7.37
2019-02-22T15:27:48.365Z,8.30
2019-02-22T15:30:38.206Z,6.93
2019-02-22T15:33:27.284Z,8.23
2019-02-22T15:36:17.288Z,7.50
2019-02-22T15:39:07.682Z,7.30
2019-02-22T15:41:58.743Z,8.50
2019-02-22T15:44:48.332Z,7.53
2019-02-22T15:47:38.240Z,7.83
2019-02-22T15:50:37.558Z,8.90
2019-02-22T15:53:27.471Z,7.00
2019-02-22T15:56:18.395Z,7.03
2019-02-22T15:59:08.720Z,8.93
2019-02-22T16:01:58.922Z,7.93
2019-02-22T16:04:57.162Z,7.40
2019-02-22T16:07:47.508Z,7.63
2019-02-22T16:10:37.544Z,7.30
2019-02-22T16:13:27.040Z,6.90
2019-02-22T16:16:23.220Z,7.13
2019-02-22T16:19:08.673Z,7.03
2019-02-22T16:21:58.603Z,7.10
2019-02-22T16:24:48.542Z,9.10
2019-02-22T16:27:38.619Z,8.23
2019-02-22T16:30:31.770Z,8.53
2019-02-22T16:33:20.889Z,9.67
2019-02-22T16:36:11.147Z,8.63
2019-02-22T16:39:01.112Z,8.33
2019-02-22T16:41:52.254Z,9.30
2019-02-22T16:44:41.981Z,9.33
2019-02-22T16:47:39.592Z,9.87
2019-02-22T16:50:24.081Z,10.50
2019-02-22T16:53:13.616Z,9.70
2019-02-22T16:56:03.596Z,9.77
2019-02-22T16:58:53.252Z,11.70
2019-02-22T17:01:42.793Z,11.10
2019-02-22T17:04:32.463Z,12.23
2019-02-22T17:07:22.133Z,10.97
2019-02-22T17:10:12.807Z,12.90
2019-02-22T17:13:02.837Z,12.80
2019-02-22T17:15:52.567Z,13.63
2019-02-22T17:18:42.482Z,13.70
2019-02-22T17:21:32.521Z,12.97
2019-02-22T17:24:22.508Z,13.70
2019-02-22T17:27:12.236Z,12.13
2019-02-22T17:30:01.915Z,12.07
2019-02-22T17:32:51.782Z,13.03
2019-02-22T17:35:41.804Z,14.50
2019-02-22T17:38:31.312Z,13.20
2019-02-22T17:41:21.020Z,13.30
2019-02-22T17:44:10.885Z,12.40
2019-02-22T17:47:03.762Z,12.90
2019-02-22T17:49:53.242Z,12.07
2019-02-22T17:52:42.911Z,12.80
2019-02-22T17:55:32.896Z,12.47
2019-02-22T17:58:24.682Z,12.53
2019-02-22T18:01:13.687Z,12.97
2019-02-22T18:04:03.898Z,12.83
2019-02-22T18:06:53.797Z,12.43
2019-02-22T18:09:43.764Z,13.93
2019-02-22T18:12:33.906Z,13.87
2019-02-22T18:15:23.829Z,12.50
2019-02-22T18:18:12.959Z,13.30
2019-02-22T18:21:02.783Z,12.87
2019-02-22T18:23:52.624Z,14.03
2019-02-22T18:26:42.086Z,14.33
2019-02-22T18:29:35.354Z,14.70
2019-02-22T18:32:23.119Z,14.03
2019-02-22T18:35:13.217Z,14.70
2019-02-22T18:38:02.341Z,13.90
2019-02-22T18:40:52.110Z,16.03
2019-02-22T18:43:41.838Z,14.50
2019-02-22T18:46:31.983Z,14.17
2019-02-22T18:49:22.004Z,20.53
2019-02-22T18:52:12.156Z,16.33
2019-02-22T18:55:02.181Z,15.77
2019-02-22T18:57:52.303Z,13.87
2019-02-22T19:00:42.540Z,13.77
2019-02-22T19:03:32.033Z,14.53
2019-02-22T19:06:21.825Z,16.77
2019-02-22T19:09:12.418Z,16.30
2019-02-22T19:12:02.561Z,14.20
2019-02-22T19:14:52.718Z,14.77
2019-02-22T19:17:42.891Z,17.60
2019-02-22T19:20:32.689Z,15.43
2019-02-22T19:23:23.077Z,16.73
2019-02-22T19:26:13.285Z,17.10
2019-02-22T19:29:04.029Z,17.10
2019-02-22T19:31:53.827Z,17.77
2019-02-22T19:34:43.654Z,17.53
2019-02-22T19:37:32.902Z,15.70
2019-02-22T19:40:23.433Z,16.53
2019-02-22T19:43:13.320Z,16.87
2019-02-22T19:46:03.022Z,18.10
2019-02-22T19:48:52.787Z,19.20
2019-02-22T19:51:42.745Z,18.23
2019-02-22T19:54:31.940Z,16.03
2019-02-22T19:57:21.904Z,17.00
2019-02-22T20:00:13.350Z,15.23
2019-02-22T20:03:03.105Z,16.67
2019-02-22T20:05:53.092Z,17.30
2019-02-22T20:08:42.965Z,19.10
2019-02-22T20:11:32.953Z,20.20
2019-02-22T20:14:22.617Z,21.10
2019-02-22T20:17:12.095Z,20.83
2019-02-22T20:20:01.387Z,20.93
2019-02-22T20:22:51.033Z,19.73
2019-02-22T20:25:40.813Z,24.17
2019-02-22T20:28:30.607Z,21.17
2019-02-22T20:31:20.755Z,20.53
2019-02-22T20:34:11.857Z,22.13
2019-02-22T20:37:02.069Z,20.90
2019-02-22T20:39:52.127Z,20.93
2019-02-22T20:42:41.786Z,20.87
2019-02-22T20:45:31.661Z,20.93
2019-02-22T20:48:21.859Z,22.23
2019-02-22T20:51:12.082Z,22.63
2019-02-22T20:54:02.199Z,24.43
2019-02-22T20:56:52.271Z,23.77
2019-02-22T20:59:41.637Z,22.93
2019-02-22T21:02:30.923Z,22.40
2019-02-22T21:05:20.875Z,21.47
2019-02-22T21:08:10.664Z,22.57
2019-02-22T21:11:00.763Z,22.20
2019-02-22T21:13:50.923Z,20.57
2019-02-22T21:16:41.462Z,21.90
2019-02-22T21:19:31.140Z,23.67
2019-02-22T21:22:20.808Z,19.80
2019-02-22T21:25:11.236Z,21.63
2019-02-22T21:28:00.963Z,24.83
2019-02-22T21:30:50.742Z,23.30
2019-02-22T21:33:40.433Z,21.07
2019-02-22T21:36:30.193Z,24.50
2019-02-22T21:39:21.167Z,22.03
2019-02-22T21:42:19.844Z,22.83
2019-02-22T21:45:02.821Z,22.63
2019-02-22T21:47:55.694Z,23.10
2019-02-22T21:50:46.006Z,21.77
2019-02-22T21:53:35.789Z,22.47
2019-02-22T21:56:25.575Z,22.27
2019-02-22T21:59:14.970Z,22.50
2019-02-22T22:02:04.827Z,24.07
2019-02-22T22:04:54.658Z,21.97
2019-02-22T22:07:44.764Z,22.80
2019-02-22T22:10:35.302Z,23.30
2019-02-22T22:13:25.425Z,21.67
2019-02-22T22:16:15.480Z,21.43
2019-02-22T22:19:05.291Z,21.67
2019-02-22T22:21:55.460Z,20.20
2019-02-22T22:24:45.467Z,18.70
2019-02-22T22:27:37.566Z,20.20
2019-02-22T22:30:28.238Z,20.00
2019-02-22T22:33:18.719Z,21.10
2019-02-22T22:36:13.021Z,21.47
2019-02-22T22:39:02.632Z,17.23
2019-02-22T22:41:54.372Z,17.90
2019-02-22T22:44:44.138Z,18.60
2019-02-22T22:47:34.202Z,18.27
2019-02-22T22:50:24.163Z,18.60
2019-02-22T22:53:13.487Z,19.90
2019-02-22T22:56:03.098Z,18.13
2019-02-22T22:58:53.072Z,18.40
2019-02-22T23:01:43.044Z,17.70
2019-02-22T23:04:33.113Z,17.10
2019-02-22T23:07:23.256Z,16.73
2019-02-22T23:10:13.051Z,16.33
2019-02-22T23:13:03.109Z,17.53
2019-02-22T23:15:52.849Z,16.63
2019-02-22T23:18:42.709Z,17.60
2019-02-22T23:21:32.677Z,16.97
2019-02-22T23:24:22.603Z,16.80
2019-02-22T23:27:12.433Z,15.70
2019-02-22T23:30:02.251Z,13.90
2019-02-22T23:32:52.579Z,14.70
2019-02-22T23:35:42.799Z,14.40
2019-02-22T23:38:32.389Z,14.23
2019-02-22T23:41:22.427Z,14.07
2019-02-22T23:44:11.911Z,12.10
2019-02-22T23:47:01.848Z,14.17
2019-02-22T23:49:51.334Z,13.90
2019-02-22T23:52:41.098Z,15.20
2019-02-22T23:55:30.793Z,13.03
2019-02-22T23:58:21.002Z,12.93
